createdAt,value
2018-10-11T00:00:49.576Z,6.10
2018-10-11T00:03:18.875Z,6.10
2018-10-11T00:05:48.020Z,6.20
2018-10-11T00:08:17.172Z,6.20
2018-10-11T00:10:46.416Z,6.10
2018-10-11T00:13:15.514Z,6.10
2018-10-11T00:15:44.635Z,6.10
2018-10-11T00:18:13.831Z,6.10
2018-10-11T00:20:42.983Z,6.10
2018-10-11T00:23:12.101Z,6.10
2018-10-11T00:25:41.277Z,6.10
2018-10-11T00:28:10.396Z,6.10
2018-10-11T00:30:39.592Z,6.10
2018-10-11T00:33:08.764Z,6.10
2018-10-11T00:35:37.956Z,6.10
2018-10-11T00:38:07.220Z,6.10
2018-10-11T00:40:36.380Z,6.10
2018-10-11T00:43:05.540Z,6.10
2018-10-11T00:45:34.701Z,6.10
2018-10-11T00:48:03.860Z,6.10
2018-10-11T00:50:33.012Z,6.10
2018-10-11T00:53:02.175Z,6.10
2018-10-11T00:55:31.317Z,6.10
2018-10-11T00:58:00.461Z,6.10
2018-10-11T01:00:29.636Z,6.10
2018-10-11T01:02:58.759Z,6.00
2018-10-11T01:05:27.886Z,6.00
2018-10-11T01:07:57.100Z,6.00
2018-10-11T01:10:26.219Z,6.00
2018-10-11T01:12:55.412Z,6.00
2018-10-11T01:15:24.608Z,6.00
2018-10-11T01:17:53.770Z,6.00
2018-10-11T01:20:22.900Z,6.00
2018-10-11T01:22:52.085Z,6.00
2018-10-11T01:25:21.251Z,6.00
2018-10-11T01:27:50.513Z,6.00
2018-10-11T01:30:19.708Z,6.00
2018-10-11T01:32:48.874Z,6.00
2018-10-11T01:35:18.024Z,6.00
2018-10-11T01:37:47.273Z,6.00
2018-10-11T01:40:16.471Z,6.00
2018-10-11T01:42:45.668Z,6.00
2018-10-11T01:45:14.870Z,6.00
2018-10-11T01:47:44.120Z,6.00
2018-10-11T01:50:13.314Z,6.00
2018-10-11T01:52:42.511Z,5.90
2018-10-11T01:55:11.716Z,5.90
2018-10-11T01:57:40.857Z,5.90
2018-10-11T02:00:09.948Z,5.90
2018-10-11T02:02:39.159Z,5.90
2018-10-11T02:05:08.454Z,6.00
2018-10-11T02:07:37.607Z,6.00
2018-10-11T02:10:07.058Z,6.10
2018-10-11T02:12:36.215Z,6.10
2018-10-11T02:15:05.811Z,6.10
2018-10-11T02:17:35.007Z,6.00
2018-10-11T02:20:04.220Z,6.10
2018-10-11T02:22:33.351Z,6.10
2018-10-11T02:25:02.544Z,6.10
2018-10-11T02:27:31.677Z,6.10
2018-10-11T02:30:00.848Z,6.10
2018-10-11T02:32:30.045Z,6.10
2018-10-11T02:34:59.284Z,6.20
2018-10-11T02:37:28.536Z,6.20
2018-10-11T02:39:57.706Z,6.30
2018-10-11T02:42:27.773Z,6.30
2018-10-11T02:44:57.036Z,6.20
2018-10-11T02:47:26.256Z,6.30
2018-10-11T02:49:55.417Z,6.30
2018-10-11T02:52:24.659Z,6.30
2018-10-11T02:54:54.461Z,6.20
2018-10-11T02:57:34.379Z,6.20
2018-10-11T03:00:04.867Z,6.20
2018-10-11T03:02:35.585Z,6.10
2018-10-11T03:05:05.821Z,6.10
2018-10-11T03:07:35.401Z,6.10
2018-10-11T03:10:04.702Z,6.10
2018-10-11T03:12:33.938Z,6.10
2018-10-11T03:15:03.167Z,6.10
2018-10-11T03:17:32.341Z,6.00
2018-10-11T03:20:01.600Z,6.10
2018-10-11T03:22:30.801Z,6.00
2018-10-11T03:25:00.562Z,6.00
2018-10-11T03:27:29.755Z,6.00
2018-10-11T03:29:58.901Z,6.00
2018-10-11T03:32:28.118Z,6.00
2018-10-11T03:34:57.307Z,6.00
2018-10-11T03:37:26.499Z,5.90
2018-10-11T03:39:55.764Z,5.90
2018-10-11T03:42:24.929Z,5.90
2018-10-11T03:44:54.210Z,5.80
2018-10-11T03:47:23.437Z,5.80
2018-10-11T03:49:52.577Z,5.80
2018-10-11T03:52:21.696Z,5.70
2018-10-11T03:54:50.886Z,5.70
2018-10-11T03:57:20.030Z,5.60
2018-10-11T03:59:49.210Z,5.60
2018-10-11T04:02:18.408Z,5.60
2018-10-11T04:04:47.553Z,5.50
2018-10-11T04:07:16.699Z,5.50
2018-10-11T04:09:45.894Z,5.50
2018-10-11T04:12:15.067Z,5.40
2018-10-11T04:14:44.277Z,5.40
2018-10-11T04:17:13.457Z,5.40
2018-10-11T04:19:42.712Z,5.40
2018-10-11T04:22:12.489Z,5.30
2018-10-11T04:24:41.668Z,5.30
2018-10-11T04:27:10.999Z,5.30
2018-10-11T04:29:40.188Z,5.30
2018-10-11T04:32:09.345Z,5.30
2018-10-11T04:34:38.510Z,5.20
2018-10-11T04:37:08.176Z,5.20
2018-10-11T04:39:37.303Z,5.20
2018-10-11T04:42:06.489Z,5.20
2018-10-11T04:44:36.718Z,5.20
2018-10-11T04:47:06.946Z,5.20
2018-10-11T04:49:36.352Z,5.20
2018-10-11T04:52:05.574Z,5.20
2018-10-11T04:54:34.721Z,5.20
2018-10-11T04:57:03.960Z,5.20
2018-10-11T04:59:33.136Z,5.20
2018-10-11T05:02:02.290Z,5.20
2018-10-11T05:04:31.427Z,5.20
2018-10-11T05:07:01.069Z,5.20
2018-10-11T05:09:30.199Z,5.20
2018-10-11T05:12:01.847Z,5.20
2018-10-11T05:14:31.781Z,5.20
2018-10-11T05:17:01.061Z,5.20
2018-10-11T05:19:30.280Z,5.20
2018-10-11T05:21:59.534Z,5.30
2018-10-11T05:24:28.696Z,5.30
2018-10-11T05:26:57.969Z,5.30
2018-10-11T05:29:27.160Z,5.30
2018-10-11T05:31:57.439Z,5.30
2018-10-11T05:34:26.575Z,5.30
2018-10-11T05:36:55.721Z,5.30
2018-10-11T05:39:25.192Z,5.40
2018-10-11T05:41:54.517Z,5.40
2018-10-11T05:44:23.743Z,5.40
2018-10-11T05:46:53.153Z,5.40
2018-10-11T05:49:22.354Z,5.50
2018-10-11T05:51:51.816Z,5.50
2018-10-11T05:54:21.253Z,5.60
2018-10-11T05:56:51.280Z,5.70
2018-10-11T05:59:20.701Z,5.70
2018-10-11T06:01:49.977Z,5.80
2018-10-11T06:04:19.209Z,5.90
2018-10-11T06:06:49.342Z,5.90
2018-10-11T06:09:18.835Z,6.00
2018-10-11T06:11:48.201Z,6.10
2018-10-11T06:14:17.581Z,6.10
2018-10-11T06:16:46.823Z,6.20
2018-10-11T06:19:16.466Z,6.30
2018-10-11T06:21:45.708Z,6.40
2018-10-11T06:24:14.882Z,6.40
2018-10-11T06:26:44.122Z,6.40
2018-10-11T06:29:13.395Z,6.50
2018-10-11T06:31:42.639Z,6.60
2018-10-11T06:34:11.846Z,6.60
2018-10-11T06:36:42.084Z,6.70
2018-10-11T06:39:12.140Z,6.80
2018-10-11T06:41:41.387Z,6.80
2018-10-11T06:44:11.059Z,6.90
2018-10-11T06:46:40.254Z,6.90
2018-10-11T06:49:09.616Z,7.00
2018-10-11T06:51:38.866Z,7.00
2018-10-11T06:54:08.394Z,7.10
2018-10-11T06:56:37.540Z,7.10
2018-10-11T06:59:06.747Z,7.10
2018-10-11T07:01:35.930Z,7.20
2018-10-11T07:04:05.180Z,7.20
2018-10-11T07:06:34.395Z,7.30
2018-10-11T07:09:04.664Z,7.40
2018-10-11T07:11:33.801Z,7.40
2018-10-11T07:14:03.037Z,7.50
2018-10-11T07:16:32.249Z,7.60
2018-10-11T07:19:01.374Z,7.80
2018-10-11T07:21:30.541Z,8.00
2018-10-11T07:23:59.766Z,8.30
2018-10-11T07:26:29.001Z,8.50
2018-10-11T07:28:58.145Z,8.90
2018-10-11T07:31:27.365Z,9.10
2018-10-11T07:33:56.521Z,9.40
2018-10-11T07:36:25.699Z,9.70
2018-10-11T07:38:54.868Z,10.00
2018-10-11T07:41:24.019Z,10.10
2018-10-11T07:43:53.213Z,10.40
2018-10-11T07:46:22.412Z,10.50
2018-10-11T07:48:51.583Z,10.70
2018-10-11T07:51:20.711Z,10.80
2018-10-11T07:53:49.884Z,11.00
2018-10-11T07:56:19.068Z,11.20
2018-10-11T07:58:48.201Z,11.30
2018-10-11T08:01:17.378Z,11.40
2018-10-11T08:03:46.547Z,11.40
2018-10-11T08:06:15.759Z,11.50
2018-10-11T08:08:45.025Z,11.50
2018-10-11T08:14:19.769Z,11.80
2018-10-11T08:16:49.211Z,11.90
2018-10-11T08:19:18.196Z,12.10
2018-10-11T08:21:47.058Z,12.30
2018-10-11T08:24:15.968Z,12.40
2018-10-11T08:26:44.975Z,12.60
2018-10-11T08:29:13.891Z,12.70
2018-10-11T08:31:42.886Z,12.80
2018-10-11T08:34:11.770Z,13.00
2018-10-11T08:36:40.696Z,13.20
2018-10-11T08:39:11.860Z,13.40
2018-10-11T08:41:40.998Z,13.50
2018-10-11T08:44:11.704Z,13.70
2018-10-11T08:46:40.614Z,13.90
2018-10-11T08:49:09.583Z,14.10
2018-10-11T08:51:38.880Z,14.40
2018-10-11T08:54:12.964Z,14.60
2018-10-11T08:56:42.626Z,14.90
2018-10-11T08:59:11.558Z,15.10
2018-10-11T09:01:40.620Z,15.40
2018-10-11T09:04:09.577Z,15.60
2018-10-11T09:06:38.496Z,15.80
2018-10-11T09:09:08.928Z,16.00
2018-10-11T09:11:37.945Z,16.20
2018-10-11T09:14:06.982Z,16.40
2018-10-11T09:16:36.226Z,16.70
2018-10-11T09:19:05.210Z,16.90
2018-10-11T09:21:34.108Z,17.00
2018-10-11T09:24:03.040Z,17.10
2018-10-11T09:26:31.979Z,17.20
2018-10-11T09:29:00.873Z,17.30
2018-10-11T09:31:29.775Z,17.40
2018-10-11T09:33:58.689Z,17.50
2018-10-11T09:36:27.690Z,17.60
2018-10-11T09:38:56.608Z,17.70
2018-10-11T09:41:25.556Z,17.80
2018-10-11T09:43:54.428Z,17.90
2018-10-11T09:46:23.308Z,18.00
2018-10-11T09:48:52.353Z,18.10
2018-10-11T09:51:21.251Z,18.20
2018-10-11T09:53:50.177Z,18.30
2018-10-11T09:56:19.067Z,18.40
2018-10-11T09:58:47.968Z,18.40
2018-10-11T10:01:22.163Z,18.40
2018-10-11T10:03:51.053Z,18.40
2018-10-11T10:06:19.999Z,18.30
2018-10-11T10:08:48.909Z,18.30
2018-10-11T10:11:17.781Z,18.30
2018-10-11T10:13:46.704Z,18.40
2018-10-11T10:16:15.612Z,18.50
2018-10-11T10:18:44.506Z,18.50
2018-10-11T10:21:13.504Z,18.50
2018-10-11T10:23:42.400Z,18.60
2018-10-11T10:26:11.298Z,18.70
2018-10-11T10:28:40.196Z,18.80
2018-10-11T10:31:09.113Z,18.80
2018-10-11T10:33:38.048Z,18.70
2018-10-11T10:36:06.921Z,18.60
2018-10-11T10:38:35.809Z,18.40
2018-10-11T10:41:04.765Z,18.40
2018-10-11T10:43:33.635Z,18.50
2018-10-11T10:46:02.505Z,18.70
2018-10-11T10:48:31.471Z,19.00
2018-10-11T10:51:00.338Z,19.20
2018-10-11T10:53:29.215Z,19.30
2018-10-11T10:55:58.184Z,19.50
2018-10-11T10:58:27.066Z,19.60
2018-10-11T11:00:55.950Z,19.80
2018-10-11T11:03:24.881Z,19.90
2018-10-11T11:05:53.778Z,19.90
2018-10-11T11:08:22.655Z,19.80
2018-10-11T11:10:51.591Z,19.80
2018-10-11T11:13:20.591Z,19.70
2018-10-11T11:15:49.577Z,19.60
2018-10-11T11:18:19.419Z,19.60
2018-10-11T11:20:48.345Z,19.50
2018-10-11T11:23:17.263Z,19.30
2018-10-11T11:25:46.202Z,19.20
2018-10-11T11:28:15.138Z,19.10
2018-10-11T11:30:44.052Z,19.10
2018-10-11T11:33:13.084Z,19.20
2018-10-11T11:35:41.961Z,19.40
2018-10-11T11:38:10.849Z,19.50
2018-10-11T11:40:39.801Z,19.60
2018-10-11T11:43:09.154Z,19.80
2018-10-11T11:45:38.060Z,19.90
2018-10-11T11:48:07.391Z,20.00
2018-10-11T11:50:36.325Z,20.00
2018-10-11T11:53:05.265Z,19.90
2018-10-11T11:55:34.280Z,19.80
2018-10-11T11:58:03.223Z,19.60
2018-10-11T12:00:32.151Z,19.50
2018-10-11T12:03:01.843Z,19.30
2018-10-11T12:05:31.385Z,19.30
2018-10-11T12:08:00.267Z,19.30
2018-10-11T12:10:29.255Z,19.30
2018-10-11T12:12:59.320Z,19.50
2018-10-11T12:15:29.251Z,19.50
2018-10-11T12:17:59.428Z,19.60
2018-10-11T12:20:29.703Z,19.70
2018-10-11T12:22:59.687Z,19.70
2018-10-11T12:25:29.059Z,19.80
2018-10-11T12:27:57.992Z,19.80
2018-10-11T12:30:26.911Z,19.90
2018-10-11T12:32:55.800Z,19.90
2018-10-11T12:35:25.315Z,19.90
2018-10-11T12:37:54.246Z,19.90
2018-10-11T12:40:24.041Z,19.90
2018-10-11T12:42:52.128Z,20.00
2018-10-11T12:45:21.118Z,19.90
2018-10-11T12:47:50.011Z,20.00
2018-10-11T12:50:18.916Z,20.00
2018-10-11T12:52:47.835Z,20.00
2018-10-11T12:55:16.809Z,20.00
2018-10-11T12:57:45.741Z,20.10
2018-10-11T13:00:15.732Z,20.10
2018-10-11T13:02:44.912Z,20.10
2018-10-11T13:05:13.773Z,20.20
2018-10-11T13:07:43.093Z,20.20
2018-10-11T13:10:12.032Z,20.20
2018-10-11T13:12:40.990Z,20.30
2018-10-11T13:15:10.008Z,20.30
2018-10-11T13:17:42.813Z,20.20
2018-10-11T13:20:08.611Z,20.30
2018-10-11T13:22:37.533Z,20.30
2018-10-11T13:25:06.541Z,20.30
2018-10-11T13:27:35.457Z,20.20
2018-10-11T13:30:04.458Z,20.20
2018-10-11T13:32:33.399Z,20.20
2018-10-11T13:35:02.362Z,20.20
2018-10-11T13:37:31.286Z,20.20
2018-10-11T13:40:00.234Z,20.20
2018-10-11T13:42:29.130Z,20.20
2018-10-11T13:44:58.050Z,20.10
2018-10-11T13:47:27.066Z,20.10
2018-10-11T13:49:55.913Z,20.10
2018-10-11T13:52:24.948Z,20.10
2018-10-11T13:54:53.871Z,20.00
2018-10-11T13:57:25.932Z,20.10
2018-10-11T13:59:51.854Z,20.10
2018-10-11T14:02:20.799Z,20.10
2018-10-11T14:04:49.944Z,20.20
2018-10-11T14:07:18.975Z,20.10
2018-10-11T14:09:47.955Z,20.00
2018-10-11T14:12:16.897Z,19.90
2018-10-11T14:14:45.796Z,19.80
2018-10-11T14:17:14.669Z,19.70
2018-10-11T14:19:43.623Z,19.60
2018-10-11T14:22:12.901Z,19.60
2018-10-11T14:24:42.509Z,19.70
2018-10-11T14:27:11.500Z,19.70
2018-10-11T14:29:40.454Z,19.50
2018-10-11T14:32:09.466Z,19.40
2018-10-11T14:34:38.479Z,19.30
2018-10-11T14:37:07.712Z,19.40
2018-10-11T14:39:36.780Z,19.40
2018-10-11T14:42:05.681Z,19.30
2018-10-11T14:44:35.457Z,19.30
2018-10-11T14:47:04.482Z,19.20
2018-10-11T14:49:33.523Z,19.10
2018-10-11T14:52:02.436Z,19.00
2018-10-11T14:54:34.306Z,18.90
2018-10-11T14:57:04.519Z,18.70
2018-10-11T14:59:33.485Z,18.70
2018-10-11T15:02:03.385Z,18.70
2018-10-11T15:04:33.530Z,18.60
2018-10-11T15:07:02.502Z,18.50
2018-10-11T15:09:31.470Z,18.40
2018-10-11T15:12:00.435Z,18.30
2018-10-11T15:14:29.384Z,18.20
2018-10-11T15:16:58.324Z,18.10
2018-10-11T15:19:27.317Z,18.00
2018-10-11T15:21:56.209Z,18.00
2018-10-11T15:24:25.119Z,17.80
2018-10-11T15:26:54.069Z,17.70
2018-10-11T15:29:23.031Z,17.60
2018-10-11T15:31:51.959Z,17.50
2018-10-11T15:34:21.290Z,17.40
2018-10-11T15:36:50.244Z,17.30
2018-10-11T15:39:19.152Z,17.20
2018-10-11T15:41:48.068Z,17.00
2018-10-11T15:44:17.137Z,16.90
2018-10-11T15:46:46.129Z,16.70
2018-10-11T15:49:15.935Z,16.50
2018-10-11T15:51:44.901Z,16.40
2018-10-11T15:54:13.817Z,16.20
2018-10-11T15:56:42.844Z,16.10
2018-10-11T15:59:11.906Z,16.00
2018-10-11T16:01:41.331Z,16.00
2018-10-11T16:04:10.365Z,15.90
2018-10-11T16:06:39.379Z,15.80
2018-10-11T16:09:10.489Z,15.80
2018-10-11T16:11:40.611Z,15.80
2018-10-11T16:14:10.252Z,15.70
2018-10-11T16:16:39.264Z,15.70
2018-10-11T16:19:08.564Z,15.60
2018-10-11T16:21:37.700Z,15.60
2018-10-11T16:24:06.837Z,15.60
2018-10-11T16:26:35.939Z,15.50
2018-10-11T16:29:05.033Z,15.50
2018-10-11T16:31:34.079Z,15.40
2018-10-11T16:34:03.497Z,15.50
2018-10-11T16:36:53.435Z,15.50
2018-10-11T16:39:22.477Z,15.40
2018-10-11T16:41:52.431Z,15.40
2018-10-11T16:44:22.320Z,15.30
2018-10-11T16:46:51.368Z,15.20
2018-10-11T16:49:20.335Z,15.20
2018-10-11T16:51:49.336Z,15.20
2018-10-11T16:54:18.321Z,15.20
2018-10-11T16:56:55.270Z,15.20
2018-10-11T16:59:25.042Z,15.20
2018-10-11T17:01:54.013Z,15.30
2018-10-11T17:04:22.951Z,15.30
2018-10-11T17:06:52.139Z,15.20
2018-10-11T17:09:21.258Z,15.20
2018-10-11T17:11:50.319Z,15.10
2018-10-11T17:14:19.312Z,15.00
2018-10-11T17:16:49.015Z,15.00
2018-10-11T17:19:18.148Z,15.00
2018-10-11T17:21:47.464Z,15.00
2018-10-11T17:24:17.299Z,14.90
2018-10-11T17:26:46.406Z,14.80
2018-10-11T17:29:15.562Z,14.70
2018-10-11T17:31:44.510Z,14.70
2018-10-11T17:34:13.471Z,14.70
2018-10-11T17:36:42.662Z,14.60
2018-10-11T17:39:13.022Z,14.60
2018-10-11T17:41:42.203Z,14.40
2018-10-11T17:44:11.780Z,14.40
2018-10-11T17:46:40.763Z,14.40
2018-10-11T17:49:09.739Z,14.40
2018-10-11T17:51:38.626Z,14.30
2018-10-11T17:54:07.592Z,14.30
2018-10-11T17:56:36.651Z,14.20
2018-10-11T17:59:05.653Z,14.20
2018-10-11T18:01:34.541Z,14.10
2018-10-11T18:04:03.477Z,14.20
2018-10-11T18:06:32.568Z,14.20
2018-10-11T18:09:01.472Z,14.10
2018-10-11T18:11:30.542Z,14.10
2018-10-11T18:13:59.620Z,14.00
2018-10-11T18:16:28.733Z,14.00
2018-10-11T18:18:57.770Z,13.90
2018-10-11T18:21:26.860Z,13.90
2018-10-11T18:23:57.262Z,13.90
2018-10-11T18:26:26.232Z,13.80
2018-10-11T18:28:55.782Z,13.80
2018-10-11T18:31:24.903Z,13.70
2018-10-11T18:33:54.501Z,13.70
2018-10-11T18:36:23.498Z,13.70
2018-10-11T18:38:52.441Z,13.70
2018-10-11T18:41:22.059Z,13.60
2018-10-11T18:43:52.022Z,13.50
2018-10-11T18:46:21.024Z,13.50
2018-10-11T18:48:49.934Z,13.40
2018-10-11T18:51:18.942Z,13.30
2018-10-11T18:53:47.845Z,13.30
2018-10-11T18:56:16.859Z,13.30
2018-10-11T18:58:45.821Z,13.20
2018-10-11T19:01:14.861Z,13.10
2018-10-11T19:03:43.811Z,12.90
2018-10-11T19:06:12.852Z,12.90
2018-10-11T19:08:44.781Z,12.80
2018-10-11T19:11:13.810Z,12.70
2018-10-11T19:13:42.901Z,12.50
2018-10-11T19:16:12.079Z,12.40
2018-10-11T19:18:41.139Z,12.40
2018-10-11T19:21:10.091Z,12.40
2018-10-11T19:23:39.038Z,12.30
2018-10-11T19:26:08.069Z,12.30
2018-10-11T19:28:36.978Z,12.20
2018-10-11T19:31:05.996Z,12.10
2018-10-11T19:33:34.863Z,12.00
2018-10-11T19:36:03.745Z,12.00
2018-10-11T19:38:32.675Z,11.90
2018-10-11T19:41:01.521Z,11.90
2018-10-11T19:43:30.461Z,11.90
2018-10-11T19:45:59.381Z,11.80
2018-10-11T19:48:28.418Z,11.80
2018-10-11T19:50:57.244Z,11.70
2018-10-11T19:53:26.211Z,11.70
2018-10-11T19:55:55.100Z,11.70
2018-10-11T19:58:24.011Z,11.60
2018-10-11T20:00:52.924Z,11.50
2018-10-11T20:03:21.820Z,11.40
2018-10-11T20:05:50.681Z,11.40
2018-10-11T20:08:19.595Z,11.30
2018-10-11T20:10:48.491Z,11.20
2018-10-11T20:13:17.848Z,11.10
2018-10-11T20:15:46.839Z,11.10
2018-10-11T20:18:15.718Z,10.90
2018-10-11T20:20:44.588Z,10.90
2018-10-11T20:23:13.518Z,10.80
2018-10-11T20:25:42.400Z,10.70
2018-10-11T20:28:11.322Z,10.60
2018-10-11T20:30:40.224Z,10.50
2018-10-11T20:33:09.127Z,10.50
2018-10-11T20:35:38.069Z,10.40
2018-10-11T20:38:06.981Z,10.30
2018-10-11T20:40:35.903Z,10.20
2018-10-11T20:43:04.763Z,10.10
2018-10-11T20:45:33.664Z,10.00
2018-10-11T20:48:02.592Z,9.90
2018-10-11T20:50:32.205Z,9.90
2018-10-11T20:53:01.068Z,9.80
2018-10-11T20:55:30.099Z,9.70
2018-10-11T20:57:59.055Z,9.60
2018-10-11T21:00:27.895Z,9.60
2018-10-11T21:02:56.757Z,9.50
2018-10-11T21:05:25.663Z,9.50
2018-10-11T21:07:54.494Z,9.40
2018-10-11T21:10:23.342Z,9.40
2018-10-11T21:12:52.216Z,9.40
2018-10-11T21:15:21.213Z,9.40
2018-10-11T21:17:50.522Z,9.40
2018-10-11T21:20:19.551Z,9.30
2018-10-11T21:22:48.403Z,9.30
2018-10-11T21:25:17.236Z,9.20
2018-10-11T21:27:46.163Z,9.10
2018-10-11T21:30:15.118Z,9.10
2018-10-11T21:32:44.008Z,9.10
2018-10-11T21:35:12.945Z,9.00
2018-10-11T21:37:41.849Z,9.10
2018-10-11T21:40:10.757Z,9.00
2018-10-11T21:42:39.790Z,9.00
2018-10-11T21:45:08.672Z,9.00
2018-10-11T21:47:37.540Z,9.00
2018-10-11T21:50:06.484Z,9.00
2018-10-11T21:52:35.399Z,9.00
2018-10-11T21:55:04.279Z,9.00
2018-10-11T21:57:33.257Z,9.00
2018-10-11T22:00:03.186Z,9.10
2018-10-11T22:02:32.065Z,9.10
2018-10-11T22:05:00.998Z,9.10
2018-10-11T22:07:29.863Z,9.10
2018-10-11T22:09:58.757Z,9.10
2018-10-11T22:12:27.649Z,9.10
2018-10-11T22:14:56.678Z,9.00
2018-10-11T22:17:25.373Z,9.00
2018-10-11T22:19:54.290Z,8.90
2018-10-11T22:22:23.210Z,8.90
2018-10-11T22:24:52.065Z,8.90
2018-10-11T22:27:20.962Z,8.90
2018-10-11T22:29:49.813Z,8.80
2018-10-11T22:32:18.684Z,8.80
2018-10-11T22:34:47.579Z,8.80
2018-10-11T22:37:16.456Z,8.70
2018-10-11T22:39:45.339Z,8.70
2018-10-11T22:42:14.283Z,8.70
2018-10-11T22:44:43.235Z,8.70
2018-10-11T22:47:12.119Z,8.80
2018-10-11T22:49:41.057Z,8.80
2018-10-11T22:52:10.078Z,8.90
2018-10-11T22:54:38.993Z,8.90
2018-10-11T22:57:07.893Z,8.90
2018-10-11T22:59:36.853Z,8.90
2018-10-11T23:02:05.756Z,8.90
2018-10-11T23:04:34.680Z,8.90
2018-10-11T23:07:03.641Z,9.00
2018-10-11T23:09:32.540Z,9.00
2018-10-11T23:12:01.452Z,8.90
2018-10-11T23:14:30.353Z,8.90
2018-10-11T23:16:59.237Z,9.00
2018-10-11T23:19:28.180Z,9.00
2018-10-11T23:21:57.143Z,9.10
2018-10-11T23:24:26.777Z,9.10
2018-10-11T23:26:56.008Z,9.20
2018-10-11T23:29:24.926Z,9.30
2018-10-11T23:31:53.806Z,9.30
2018-10-11T23:34:23.046Z,9.40
2018-10-11T23:36:51.972Z,9.40
2018-10-11T23:39:20.856Z,9.50
2018-10-11T23:41:49.749Z,9.50
2018-10-11T23:44:18.688Z,9.50
2018-10-11T23:46:47.603Z,9.50
2018-10-11T23:49:16.512Z,9.60
2018-10-11T23:51:45.517Z,9.60
2018-10-11T23:54:14.432Z,9.60
2018-10-11T23:56:43.361Z,9.60
2018-10-11T23:59:12.375Z,9.70
